Araquari, Brazil
Current Conditions -  °F | °C
As of 2:00 PM on Monday 22 Dec 2014 (Local Time) from SBJV Reporting Station
Moderate Rain Moderate Rain  
Wind Chill: 72°   Ceiling: 600
Heat Index: 72°   Visibility: 3mi
Dew Point: 72°   Wind: 9mph
Humidity: 100%   Direction: 150°SSE
Pressure: 29.91"   Gusts: NA
Location:  26.37°S, 48.72°W
Report Text: SBJV 221600Z 15008KT 5000 RA BKN006 OVC020 22/22 Q1013
Loading
Personal Weather Stations






























Interactive Weather Map New forecast layout! Learn more

10-Day Weather Forecast

Advertisements
Track Severe Weather on mobile